Time;durP1;ratioP1;P1;durP2;ratioP2;P2;SDS_P1;SDS_P2;PMS_P1;PMS_P2;Temp;Humidity;BMP_temperature;BMP_pressure;BME280_temperature;BME280_humidity;BME280_pressure;Samples;Min_cycle;Max_cycle;Signal;HPM_P1;HPM_P2
2022/05/11 00:02:06;;;;;;;7.10;2.70;;;;;;;;;;4973311;28;20026;-74
2022/05/11 00:04:32;;;;;;;5.28;2.42;;;;;;;;;;4974576;28;20099;-74
2022/05/11 00:06:58;;;;;;;7.30;2.63;;;;;;;;;;4974737;28;20037;-74
2022/05/11 00:09:24;;;;;;;4.35;2.30;;;;;;;;;;4974495;28;20049;-74
2022/05/11 00:11:50;;;;;;;6.20;2.38;;;;;;;;;;4974576;28;20189;-74
2022/05/11 00:14:17;;;;;;;4.95;2.22;;;;;;;;;;4974436;28;20406;-74
2022/05/11 00:16:43;;;;;;;5.97;2.33;;;;;;;;;;4969522;28;20035;-75
2022/05/11 00:19:09;;;;;;;7.38;3.65;;;;;;;;;;4955142;29;20023;-74
2022/05/11 00:21:36;;;;;;;8.30;3.38;;;;;;;;;;4955002;29;20034;-74
2022/05/11 00:24:02;;;;;;;5.50;2.72;;;;;;;;;;4955119;28;20102;-74
2022/05/11 00:26:28;;;;;;;10.55;3.13;;;;;;;;;;4954976;29;20031;-74
2022/05/11 00:28:54;;;;;;;7.32;2.63;;;;;;;;;;4954975;29;20031;-74
2022/05/11 00:31:20;;;;;;;5.50;2.60;;;;;;;;;;4954835;29;20027;-74
2022/05/11 00:33:46;;;;;;;6.40;2.72;;;;;;;;;;4954838;29;20043;-74
2022/05/11 00:36:14;;;;;;;5.13;2.72;;;;;;;;;;4954725;29;20027;-74
2022/05/11 00:38:40;;;;;;;6.55;2.67;;;;;;;;;;4964122;28;20014;-74
2022/05/11 00:41:06;;;;;;;8.85;2.70;;;;;;;;;;4973959;28;20365;-74
2022/05/11 00:43:38;;;;;;;5.75;2.42;;;;;;;;;;4974008;28;20026;-74
2022/05/11 00:46:10;;;;;;;6.13;2.53;;;;;;;;;;4973561;28;20050;-74
2022/05/11 00:51:21;;;;;;;6.53;3.20;;;;;;;;;;4973822;28;20042;-74
2022/05/11 00:53:50;;;;;;;6.38;2.85;;;;;;;;;;4972268;28;20034;-74
2022/05/11 00:56:16;;;;;;;7.88;2.97;;;;;;;;;;4973743;28;20092;-74
2022/05/11 00:58:53;;;;;;;8.30;3.50;;;;;;;;;;4973775;28;20026;-74
2022/05/11 01:01:19;;;;;;;5.78;3.25;;;;;;;;;;4973463;28;20070;-74
2022/05/11 01:03:48;;;;;;;9.07;3.33;;;;;;;;;;4973428;28;20019;-74
2022/05/11 01:06:14;;;;;;;7.80;3.70;;;;;;;;;;4973375;28;20019;-74
2022/05/11 01:08:40;;;;;;;7.22;3.83;;;;;;;;;;4973488;28;20050;-74
2022/05/11 01:11:07;;;;;;;8.30;3.30;;;;;;;;;;4973423;28;20023;-74
2022/05/11 01:13:34;;;;;;;9.85;3.80;;;;;;;;;;4972114;28;20065;-74
2022/05/11 01:16:01;;;;;;;9.00;4.18;;;;;;;;;;4973289;28;20027;-74
2022/05/11 01:18:28;;;;;;;8.05;4.25;;;;;;;;;;4973220;28;20031;-74
2022/05/11 01:20:54;;;;;;;10.18;3.97;;;;;;;;;;4973165;28;20046;-74
2022/05/11 01:23:23;;;;;;;10.10;3.60;;;;;;;;;;4973277;28;20413;-74
2022/05/11 01:25:49;;;;;;;7.15;3.80;;;;;;;;;;4971888;28;20457;-74
2022/05/11 01:28:16;;;;;;;8.70;3.70;;;;;;;;;;4973138;28;20110;-74
2022/05/11 01:30:45;;;;;;;8.60;4.05;;;;;;;;;;4973053;28;20026;-74
2022/05/11 01:33:15;;;;;;;14.55;4.28;;;;;;;;;;4973144;28;20030;-74
2022/05/11 01:35:41;;;;;;;8.77;3.72;;;;;;;;;;4972964;28;20035;-74
2022/05/11 01:38:36;;;;;;;11.75;4.20;;;;;;;;;;4973115;28;20019;-74
2022/05/11 01:41:02;;;;;;;6.90;4.15;;;;;;;;;;4956318;28;20376;-74
2022/05/11 01:43:30;;;;;;;13.27;4.22;;;;;;;;;;4973627;28;20029;-75
2022/05/11 01:45:56;;;;;;;10.35;4.07;;;;;;;;;;4972752;28;20051;-74
2022/05/11 01:48:23;;;;;;;11.77;3.90;;;;;;;;;;4972901;28;20030;-74
2022/05/11 01:50:49;;;;;;;10.90;4.15;;;;;;;;;;4972900;28;20160;-74
2022/05/11 01:53:15;;;;;;;12.63;4.05;;;;;;;;;;4972906;28;20031;-74
2022/05/11 01:55:41;;;;;;;10.23;4.13;;;;;;;;;;4972737;28;20130;-74
2022/05/11 01:58:08;;;;;;;6.82;4.05;;;;;;;;;;4971587;28;20426;-74
2022/05/11 02:00:35;;;;;;;9.65;3.67;;;;;;;;;;4972631;28;20106;-74
2022/05/11 02:03:01;;;;;;;10.80;3.85;;;;;;;;;;4972774;28;20034;-74
2022/05/11 02:08:11;;;;;;;7.57;3.97;;;;;;;;;;4972915;28;20105;-74
2022/05/11 02:10:38;;;;;;;7.57;3.22;;;;;;;;;;4972566;28;20101;-74
2022/05/11 02:13:04;;;;;;;6.22;3.60;;;;;;;;;;4971548;28;20117;-74
2022/05/11 02:15:30;;;;;;;14.52;3.97;;;;;;;;;;4974347;28;20508;-74
2022/05/11 02:17:56;;;;;;;12.32;3.60;;;;;;;;;;4976318;28;20031;-74
2022/05/11 02:20:22;;;;;;;8.85;3.63;;;;;;;;;;4975010;28;20026;-74
2022/05/11 02:22:48;;;;;;;6.53;3.58;;;;;;;;;;4976393;28;20061;-74
2022/05/11 02:25:18;;;;;;;6.60;3.53;;;;;;;;;;4976441;28;20023;-74
2022/05/11 02:27:48;;;;;;;9.45;3.97;;;;;;;;;;4975331;28;20027;-74
2022/05/11 02:30:17;;;;;;;8.90;3.70;;;;;;;;;;4974962;28;20436;-74
2022/05/11 02:32:43;;;;;;;12.45;3.95;;;;;;;;;;4976294;28;20031;-74
2022/05/11 02:35:12;;;;;;;11.05;3.83;;;;;;;;;;4976037;28;20031;-74
2022/05/11 02:37:39;;;;;;;10.48;4.00;;;;;;;;;;4976106;28;20023;-74
2022/05/11 02:40:05;;;;;;;13.23;4.35;;;;;;;;;;4976177;28;20062;-74
2022/05/11 02:42:31;;;;;;;16.02;4.00;;;;;;;;;;4976221;28;20035;-74
2022/05/11 02:44:57;;;;;;;8.52;3.25;;;;;;;;;;4976174;28;20031;-74
2022/05/11 02:47:23;;;;;;;7.22;3.55;;;;;;;;;;4975858;28;20058;-74
2022/05/11 02:49:50;;;;;;;9.80;3.92;;;;;;;;;;4975965;28;20110;-74
2022/05/11 02:52:17;;;;;;;5.75;3.65;;;;;;;;;;4975946;28;20073;-74
2022/05/11 02:54:46;;;;;;;7.78;3.15;;;;;;;;;;4975820;28;20026;-74
2022/05/11 02:57:12;;;;;;;9.85;3.33;;;;;;;;;;4975944;28;20023;-74
2022/05/11 02:59:38;;;;;;;17.15;5.03;;;;;;;;;;4974419;28;20019;-74
2022/05/11 03:02:04;;;;;;;10.20;3.50;;;;;;;;;;4975741;28;20102;-74
2022/05/11 03:04:31;;;;;;;7.05;3.47;;;;;;;;;;4974368;28;20489;-74
2022/05/11 03:06:57;;;;;;;9.57;3.88;;;;;;;;;;4975591;28;20058;-74
2022/05/11 03:09:23;;;;;;;10.45;3.97;;;;;;;;;;4975557;28;20031;-74
2022/05/11 03:11:49;;;;;;;11.25;4.20;;;;;;;;;;4975578;28;20050;-74
2022/05/11 03:14:15;;;;;;;12.52;3.45;;;;;;;;;;4975516;28;20030;-74
2022/05/11 03:16:42;;;;;;;8.45;3.13;;;;;;;;;;4975328;28;20027;-74
2022/05/11 03:19:08;;;;;;;7.25;3.00;;;;;;;;;;4975489;28;20050;-74
2022/05/11 03:21:34;;;;;;;8.75;2.90;;;;;;;;;;4973998;28;20023;-74
2022/05/11 03:24:00;;;;;;;6.28;2.78;;;;;;;;;;4975468;28;20447;-74
2022/05/11 03:26:27;;;;;;;7.97;2.45;;;;;;;;;;4974000;28;20458;-74
2022/05/11 03:28:53;;;;;;;10.07;3.20;;;;;;;;;;4975401;28;20039;-74
2022/05/11 03:31:19;;;;;;;8.80;2.33;;;;;;;;;;4975208;28;20058;-74
2022/05/11 03:36:31;;;;;;;7.10;1.98;;;;;;;;;;4975415;28;20428;-74
2022/05/11 03:38:57;;;;;;;5.28;2.00;;;;;;;;;;4963418;28;20019;-74
2022/05/11 03:41:23;;;;;;;5.18;1.80;;;;;;;;;;4962713;28;20014;-74
2022/05/11 03:43:49;;;;;;;3.85;2.03;;;;;;;;;;4975202;28;20023;-74
2022/05/11 03:46:15;;;;;;;6.97;2.30;;;;;;;;;;4973381;28;20523;-74
2022/05/11 03:48:42;;;;;;;7.72;2.13;;;;;;;;;;4973555;28;20058;-74
2022/05/11 03:51:10;;;;;;;4.68;1.83;;;;;;;;;;4973534;28;20018;-74
2022/05/11 03:53:37;;;;;;;4.32;1.85;;;;;;;;;;4974949;28;20501;-74
2022/05/11 03:56:03;;;;;;;4.55;1.92;;;;;;;;;;4974751;28;20390;-74
2022/05/11 03:58:29;;;;;;;4.38;2.03;;;;;;;;;;4974759;28;20086;-74
2022/05/11 04:00:55;;;;;;;5.25;1.70;;;;;;;;;;4974689;28;20026;-75
2022/05/11 04:03:21;;;;;;;4.22;1.83;;;;;;;;;;4974663;28;20452;-74
2022/05/11 04:05:47;;;;;;;4.25;1.80;;;;;;;;;;4974532;28;20437;-74
2022/05/11 04:08:13;;;;;;;3.05;1.40;;;;;;;;;;4973220;28;20027;-74
2022/05/11 04:10:39;;;;;;;4.78;1.70;;;;;;;;;;4974216;28;20022;-74
2022/05/11 04:13:06;;;;;;;3.58;1.70;;;;;;;;;;4974540;28;20117;-74
2022/05/11 04:15:32;;;;;;;8.82;2.00;;;;;;;;;;4974310;28;20023;-74
2022/05/11 04:17:58;;;;;;;8.23;1.85;;;;;;;;;;4974109;28;20393;-74
2022/05/11 04:20:24;;;;;;;7.30;2.40;;;;;;;;;;4974177;28;20394;-74
2022/05/11 04:22:50;;;;;;;5.90;1.83;;;;;;;;;;4974228;28;20482;-74
2022/05/11 04:25:17;;;;;;;7.32;1.58;;;;;;;;;;4974118;28;20046;-74
2022/05/11 04:27:45;;;;;;;5.47;1.98;;;;;;;;;;4974266;28;20041;-74
2022/05/11 04:30:12;;;;;;;6.35;1.77;;;;;;;;;;4974027;28;20041;-74
2022/05/11 04:32:38;;;;;;;5.85;1.80;;;;;;;;;;4974027;28;20042;-74
2022/05/11 04:35:04;;;;;;;5.07;1.77;;;;;;;;;;4973942;28;20027;-75
2022/05/11 04:37:30;;;;;;;10.38;1.80;;;;;;;;;;4973329;28;20031;-74
2022/05/11 04:39:56;;;;;;;6.47;1.98;;;;;;;;;;4973977;28;20023;-74
2022/05/11 04:42:22;;;;;;;5.30;1.70;;;;;;;;;;4973916;28;20528;-73
2022/05/11 04:44:48;;;;;;;6.53;1.75;;;;;;;;;;4973828;28;20485;-74
2022/05/11 04:47:16;;;;;;;4.38;1.73;;;;;;;;;;4973635;28;20137;-74
2022/05/11 04:49:42;;;;;;;9.30;1.67;;;;;;;;;;4973650;28;20429;-74
2022/05/11 04:52:13;;;;;;;4.13;1.42;;;;;;;;;;4973808;28;20130;-74
2022/05/11 04:54:40;;;;;;;5.80;1.48;;;;;;;;;;4973521;28;20026;-74
2022/05/11 04:57:07;;;;;;;5.85;1.50;;;;;;;;;;4972231;28;20126;-74
2022/05/11 04:59:33;;;;;;;6.25;1.50;;;;;;;;;;4973693;28;20102;-74
2022/05/11 05:02:00;;;;;;;7.45;1.50;;;;;;;;;;4973377;28;20027;-74
2022/05/11 05:04:29;;;;;;;5.35;1.63;;;;;;;;;;4972142;28;20026;-74
2022/05/11 05:06:55;;;;;;;3.63;1.42;;;;;;;;;;4973485;28;20030;-75
2022/05/11 05:09:21;;;;;;;3.95;1.13;;;;;;;;;;4973125;28;20031;-74
2022/05/11 05:11:47;;;;;;;5.50;1.20;;;;;;;;;;4972144;28;20026;-74
2022/05/11 05:14:13;;;;;;;4.88;1.10;;;;;;;;;;4971841;28;20042;-74
2022/05/11 05:16:40;;;;;;;4.95;1.45;;;;;;;;;;4973103;28;20030;-74
2022/05/11 05:19:06;;;;;;;6.53;1.02;;;;;;;;;;4973338;28;20030;-74
2022/05/11 05:21:32;;;;;;;4.82;1.00;;;;;;;;;;4973034;28;20029;-74
2022/05/11 05:23:59;;;;;;;5.28;1.10;;;;;;;;;;4972742;28;20038;-73
2022/05/11 05:26:25;;;;;;;9.15;0.90;;;;;;;;;;4972730;28;20030;-74
2022/05/11 05:31:37;;;;;;;3.60;0.70;;;;;;;;;;4972201;28;20042;-74
2022/05/11 05:34:04;;;;;;;3.78;1.00;;;;;;;;;;4972581;28;20026;-74
2022/05/11 05:36:32;;;;;;;9.02;1.10;;;;;;;;;;4972511;28;20102;-74
2022/05/11 05:38:58;;;;;;;5.88;1.00;;;;;;;;;;4972608;28;20019;-74
2022/05/11 05:41:25;;;;;;;5.80;0.90;;;;;;;;;;4969961;28;20078;-75
2022/05/11 05:43:51;;;;;;;2.42;0.65;;;;;;;;;;4972831;28;20035;-74
2022/05/11 05:46:18;;;;;;;5.97;0.88;;;;;;;;;;4970849;28;20090;-74
2022/05/11 05:48:44;;;;;;;7.32;1.08;;;;;;;;;;4972225;28;20015;-74
2022/05/11 05:51:11;;;;;;;4.18;1.10;;;;;;;;;;4970573;28;20015;-74
2022/05/11 05:53:40;;;;;;;5.90;0.80;;;;;;;;;;4972307;28;20082;-74
2022/05/11 05:56:06;;;;;;;3.40;0.60;;;;;;;;;;4970057;28;20069;-74
2022/05/11 05:58:32;;;;;;;2.50;0.65;;;;;;;;;;4972545;28;20034;-74
2022/05/11 06:00:58;;;;;;;3.25;0.75;;;;;;;;;;4972091;28;20107;-74
2022/05/11 06:03:26;;;;;;;4.15;0.80;;;;;;;;;;4970994;28;20026;-74
2022/05/11 06:05:52;;;;;;;6.15;0.90;;;;;;;;;;4972221;28;20023;-74
2022/05/11 06:08:19;;;;;;;5.25;1.00;;;;;;;;;;4972296;28;20033;-74
2022/05/11 06:10:46;;;;;;;5.97;0.80;;;;;;;;;;4969950;28;20026;-74
2022/05/11 06:13:13;;;;;;;3.80;0.70;;;;;;;;;;4972389;28;20389;-74
2022/05/11 06:15:39;;;;;;;5.07;1.00;;;;;;;;;;4972083;28;20027;-75
2022/05/11 06:18:09;;;;;;;4.82;0.73;;;;;;;;;;4970700;28;20027;-74
2022/05/11 06:20:36;;;;;;;3.83;0.70;;;;;;;;;;4972221;28;20027;-74
2022/05/11 06:23:03;;;;;;;7.93;0.95;;;;;;;;;;4972240;28;20057;-74
2022/05/11 06:25:30;;;;;;;3.95;0.85;;;;;;;;;;4972203;28;20026;-74
2022/05/11 06:27:58;;;;;;;3.15;0.77;;;;;;;;;;4972456;28;20109;-76
2022/05/11 06:30:24;;;;;;;5.28;0.68;;;;;;;;;;4968837;28;20030;-74
2022/05/11 06:32:50;;;;;;;7.53;0.90;;;;;;;;;;4971714;28;20027;-74
2022/05/11 06:35:16;;;;;;;2.70;0.80;;;;;;;;;;4972194;28;20560;-75
2022/05/11 06:37:44;;;;;;;4.00;0.70;;;;;;;;;;4971535;28;20050;-74
2022/05/11 06:40:10;;;;;;;4.40;0.90;;;;;;;;;;4970150;28;20536;-75
2022/05/11 06:42:37;;;;;;;6.32;0.68;;;;;;;;;;4972451;28;20027;-75
2022/05/11 06:45:05;;;;;;;3.25;0.60;;;;;;;;;;4971973;28;20389;-74
2022/05/11 06:47:31;;;;;;;4.22;0.65;;;;;;;;;;4971918;28;20057;-74
2022/05/11 06:49:57;;;;;;;3.45;0.88;;;;;;;;;;4970630;28;20198;-74
2022/05/11 06:52:23;;;;;;;4.70;0.80;;;;;;;;;;4954356;28;20029;-74
2022/05/11 07:00:27;;;;;;;5.13;0.90;;;;;;;;;;4967172;28;20034;-74
2022/05/11 07:02:53;;;;;;;3.28;1.00;;;;;;;;;;4957345;28;20042;-74
2022/05/11 07:05:19;;;;;;;5.70;1.13;;;;;;;;;;4974841;28;20027;-74
2022/05/11 07:07:45;;;;;;;4.00;0.70;;;;;;;;;;4975293;28;20063;-74
2022/05/11 07:10:11;;;;;;;7.35;0.85;;;;;;;;;;4975480;28;20034;-74
2022/05/11 07:12:45;;;;;;;6.32;0.70;;;;;;;;;;4975619;28;20023;-74
2022/05/11 07:15:12;;;;;;;5.90;0.98;;;;;;;;;;4958086;28;20042;-74
2022/05/11 07:17:39;;;;;;;4.22;0.70;;;;;;;;;;4975479;28;20019;-74
2022/05/11 07:20:08;;;;;;;3.70;0.80;;;;;;;;;;4957677;28;20023;-75
2022/05/11 07:22:34;;;;;;;5.03;0.63;;;;;;;;;;4972464;28;20026;-78
2022/05/11 07:25:00;;;;;;;6.82;0.65;;;;;;;;;;4971861;28;20054;-78
2022/05/11 07:27:26;;;;;;;4.70;0.65;;;;;;;;;;4973361;28;20103;-77
2022/05/11 07:29:53;;;;;;;8.85;1.08;;;;;;;;;;4970081;28;20492;-77
2022/05/11 07:32:19;;;;;;;3.78;0.70;;;;;;;;;;4974193;28;20066;-77
2022/05/11 07:34:45;;;;;;;8.63;1.35;;;;;;;;;;4975254;28;20022;-77
2022/05/11 07:37:12;;;;;;;3.97;1.00;;;;;;;;;;4957724;28;20029;-77
2022/05/11 07:39:38;;;;;;;5.80;0.90;;;;;;;;;;4966948;28;20034;-76
2022/05/11 07:42:04;;;;;;;6.30;0.82;;;;;;;;;;4969632;28;20026;-77
2022/05/11 07:44:30;;;;;;;7.43;0.98;;;;;;;;;;4973305;28;20564;-77
2022/05/11 07:46:56;;;;;;;6.45;1.20;;;;;;;;;;4961685;28;20489;-79
2022/05/11 07:49:22;;;;;;;7.32;1.33;;;;;;;;;;4975211;28;20048;-77
2022/05/11 07:51:50;;;;;;;7.65;1.00;;;;;;;;;;4975348;28;20458;-79
2022/05/11 07:54:16;;;;;;;2.53;0.60;;;;;;;;;;4975050;28;20362;-80
2022/05/11 08:02:11;;;;;;;5.40;0.95;;;;;;;;;;4955832;29;20118;-78
2022/05/11 08:04:39;;;;;;;12.98;1.00;;;;;;;;;;4971730;28;20027;-79
2022/05/11 08:07:05;;;;;;;4.47;0.85;;;;;;;;;;4975028;28;20023;-78
2022/05/11 08:09:31;;;;;;;7.82;0.93;;;;;;;;;;4959076;28;20073;-78
2022/05/11 08:11:58;;;;;;;6.43;0.90;;;;;;;;;;4953745;28;20030;-78
2022/05/11 08:14:24;;;;;;;4.18;0.70;;;;;;;;;;4962320;28;20049;-78
2022/05/11 08:16:53;;;;;;;5.70;0.70;;;;;;;;;;4968897;28;20023;-79
2022/05/11 08:19:20;;;;;;;3.63;0.65;;;;;;;;;;4967044;28;20023;-79
2022/05/11 08:21:47;;;;;;;9.93;0.80;;;;;;;;;;4974391;28;20053;-79
2022/05/11 08:24:13;;;;;;;3.40;0.65;;;;;;;;;;4973401;28;20034;-78
2022/05/11 08:26:43;;;;;;;5.38;1.10;;;;;;;;;;4973092;28;20562;-78
2022/05/11 08:29:09;;;;;;;4.18;0.73;;;;;;;;;;4973185;28;20027;-78
2022/05/11 08:34:22;;;;;;;4.80;1.02;;;;;;;;;;4955013;29;20911;-76
2022/05/11 08:36:48;;;;;;;7.85;1.23;;;;;;;;;;4953397;28;20031;-79
2022/05/11 08:39:15;;;;;;;8.55;0.60;;;;;;;;;;4967826;28;20435;-78
2022/05/11 08:41:49;;;;;;;5.32;0.77;;;;;;;;;;4974879;28;20046;-85
2022/05/11 08:44:16;;;;;;;5.65;0.75;;;;;;;;;;4974740;28;20034;-76
2022/05/11 08:46:52;;;;;;;3.53;0.77;;;;;;;;;;4973818;28;20057;-78
2022/05/11 08:49:18;;;;;;;6.55;1.20;;;;;;;;;;4975636;28;20109;-86
2022/05/11 08:51:50;;;;;;;5.88;0.80;;;;;;;;;;4975418;28;20457;-84
2022/05/11 08:54:19;;;;;;;6.85;1.05;;;;;;;;;;4975679;28;20081;-84
2022/05/11 08:56:46;;;;;;;3.45;1.10;;;;;;;;;;4976278;28;20027;-84
2022/05/11 08:59:20;;;;;;;5.07;0.90;;;;;;;;;;4975132;28;20038;-77
2022/05/11 09:01:49;;;;;;;10.50;1.20;;;;;;;;;;4973237;28;20072;-78
2022/05/11 09:04:17;;;;;;;6.00;1.00;;;;;;;;;;4973682;28;20081;-77
2022/05/11 09:06:45;;;;;;;5.53;0.85;;;;;;;;;;4973703;28;20019;-79
2022/05/11 09:09:12;;;;;;;4.30;0.63;;;;;;;;;;4965232;28;20035;-78
2022/05/11 09:11:43;;;;;;;9.40;0.60;;;;;;;;;;4973455;28;20031;-79
2022/05/11 09:14:13;;;;;;;3.73;1.20;;;;;;;;;;4973690;28;20023;-79
2022/05/11 09:16:42;;;;;;;8.45;0.95;;;;;;;;;;4973007;28;20254;-78
2022/05/11 09:19:13;;;;;;;4.93;0.60;;;;;;;;;;4973035;28;20540;-77
2022/05/11 09:21:41;;;;;;;1.33;0.40;;;;;;;;;;4952612;29;20118;-77
2022/05/11 09:24:09;;;;;;;2.47;0.50;;;;;;;;;;4959798;28;20756;-76
2022/05/11 09:26:38;;;;;;;3.03;0.60;;;;;;;;;;4973004;28;20133;-77
2022/05/11 09:29:13;;;;;;;3.25;0.70;;;;;;;;;;4972958;28;20021;-76
2022/05/11 09:31:39;;;;;;;4.88;1.27;;;;;;;;;;4972539;28;20022;-76
2022/05/11 09:34:08;;;;;;;4.85;0.77;;;;;;;;;;4972705;28;20029;-77
2022/05/11 09:36:39;;;;;;;9.35;0.88;;;;;;;;;;4971293;28;20030;-76
2022/05/11 09:39:13;;;;;;;7.45;0.60;;;;;;;;;;4973002;28;20027;-77
2022/05/11 09:41:40;;;;;;;5.10;0.60;;;;;;;;;;4972721;28;20027;-78
2022/05/11 09:44:22;;;;;;;9.68;0.65;;;;;;;;;;4973204;28;20037;-78
2022/05/11 09:46:48;;;;;;;9.50;0.60;;;;;;;;;;4964989;28;20124;-76
2022/05/11 09:49:17;;;;;;;3.58;0.60;;;;;;;;;;4953877;29;20022;-76
2022/05/11 09:51:46;;;;;;;4.78;0.98;;;;;;;;;;4951402;29;20050;-76
2022/05/11 09:54:19;;;;;;;8.82;1.20;;;;;;;;;;4953874;29;20042;-77
2022/05/11 09:56:46;;;;;;;;;;;;;;;;;;4954394;29;20024;-77
2022/05/11 09:59:30;;;;;;;5.65;0.95;;;;;;;;;;4953290;29;20287;-77
2022/05/11 10:02:05;;;;;;;5.05;0.60;;;;;;;;;;4953156;29;20023;-79
2022/05/11 10:04:39;;;;;;;5.93;0.57;;;;;;;;;;4954192;29;20031;-77
2022/05/11 10:07:10;;;;;;;3.10;0.63;;;;;;;;;;4954278;29;20408;-78
2022/05/11 10:09:40;;;;;;;5.97;0.60;;;;;;;;;;4954218;29;20504;-80
2022/05/11 10:12:08;;;;;;;6.68;0.80;;;;;;;;;;4937127;29;20370;-81
2022/05/11 10:23:03;;;;;;;3.92;0.57;;;;;;;;;;4935103;29;20397;-80
2022/05/11 10:25:35;;;;;;;7.88;0.90;;;;;;;;;;4939843;29;20126;-75
2022/05/11 10:28:09;;;;;;;4.28;0.88;;;;;;;;;;4936497;29;20082;-76
2022/05/11 10:30:41;;;;;;;6.63;1.02;;;;;;;;;;4953714;29;20038;-76
2022/05/11 10:33:16;;;;;;;6.57;0.73;;;;;;;;;;4953630;29;20462;-76
2022/05/11 10:35:46;;;;;;;10.02;0.70;;;;;;;;;;4937172;29;20090;-76
2022/05/11 10:38:31;;;;;;;12.23;0.88;;;;;;;;;;4942926;29;20432;-77
2022/05/11 10:40:57;;;;;;;5.93;0.70;;;;;;;;;;4956596;29;20058;-76
2022/05/11 10:43:42;;;;;;;5.32;1.00;;;;;;;;;;4956578;29;20126;-76
2022/05/11 10:46:18;;;;;;;6.22;0.88;;;;;;;;;;4941269;28;20027;-76
2022/05/11 10:48:51;;;;;;;5.25;0.60;;;;;;;;;;4965526;28;20039;-77
2022/05/11 10:51:20;;;;;;;6.63;0.75;;;;;;;;;;4973464;28;20054;-78
2022/05/11 10:53:46;;;;;;;5.30;0.55;;;;;;;;;;4976718;28;20027;-77
2022/05/11 10:56:12;;;;;;;5.90;1.58;;;;;;;;;;4976805;28;20047;-77
2022/05/11 10:58:57;;;;;;;10.48;0.95;;;;;;;;;;4974372;28;20061;-78
2022/05/11 11:01:24;;;;;;;8.82;0.90;;;;;;;;;;4964636;28;20441;-77
2022/05/11 11:04:05;;;;;;;6.38;0.77;;;;;;;;;;4968115;28;20350;-77
2022/05/11 11:09:22;;;;;;;4.88;0.77;;;;;;;;;;4956984;29;20094;-78
2022/05/11 11:11:57;;;;;;;14.50;1.08;;;;;;;;;;4956870;29;20031;-76
2022/05/11 11:14:26;;;;;;;4.57;1.00;;;;;;;;;;4956548;29;20042;-77
2022/05/11 11:16:52;;;;;;;9.27;1.55;;;;;;;;;;4957279;28;20099;-85
2022/05/11 11:19:18;;;;;;;6.13;1.08;;;;;;;;;;4957420;29;20482;-85
2022/05/11 11:21:45;;;;;;;6.50;1.65;;;;;;;;;;4956017;29;20058;-85
2022/05/11 11:24:11;;;;;;;7.22;0.85;;;;;;;;;;4957380;29;20030;-84
2022/05/11 11:26:46;;;;;;;6.82;1.60;;;;;;;;;;4956032;29;20023;-85
2022/05/11 11:29:13;;;;;;;6.22;1.15;;;;;;;;;;4956336;29;20094;-84
2022/05/11 11:32:00;;;;;;;3.65;0.60;;;;;;;;;;4956424;29;20027;-82
2022/05/11 11:34:29;;;;;;;8.25;1.30;;;;;;;;;;4955695;29;20441;-84
2022/05/11 11:36:55;;;;;;;6.25;0.73;;;;;;;;;;4957071;28;20019;-83
2022/05/11 11:39:40;;;;;;;8.55;0.95;;;;;;;;;;4967415;28;20019;-88
2022/05/11 11:42:07;;;;;;;6.78;0.70;;;;;;;;;;4957441;29;20027;-83
2022/05/11 11:44:46;;;;;;;5.38;1.10;;;;;;;;;;4971679;28;20127;-83
2022/05/11 11:47:38;;;;;;;6.60;0.88;;;;;;;;;;4955424;28;20393;-84
2022/05/11 11:50:05;;;;;;;8.73;0.98;;;;;;;;;;4954285;29;20108;-84
2022/05/11 11:52:33;;;;;;;6.13;1.13;;;;;;;;;;4956872;29;20352;-84
2022/05/11 11:54:59;;;;;;;7.30;1.65;;;;;;;;;;4957051;29;20024;-83
2022/05/11 11:57:25;;;;;;;8.25;1.00;;;;;;;;;;4957330;29;20027;-83
2022/05/11 11:59:52;;;;;;;9.68;1.05;;;;;;;;;;4971434;28;20139;-90
2022/05/11 12:02:24;;;;;;;4.68;1.10;;;;;;;;;;4956585;29;20092;-83
2022/05/11 12:05:09;;;;;;;5.47;1.10;;;;;;;;;;4956745;28;20031;-82
2022/05/11 12:16:46;;;;;;;3.70;0.93;;;;;;;;;;4900516;29;20095;-84
2022/05/11 12:19:14;;;;;;;4.97;0.88;;;;;;;;;;4916304;29;20032;-85
2022/05/11 12:21:42;;;;;;;5.32;1.02;;;;;;;;;;4916189;29;20036;-84
2022/05/11 12:24:18;;;;;;;4.97;1.00;;;;;;;;;;4916020;29;20024;-82
2022/05/11 12:26:53;;;;;;;8.73;1.10;;;;;;;;;;4916169;29;20122;-83
2022/05/11 12:32:08;;;;;;;9.98;1.20;;;;;;;;;;4915994;29;20035;-82
2022/05/11 12:34:41;;;;;;;5.88;1.10;;;;;;;;;;4915919;29;20044;-86
2022/05/11 12:37:24;;;;;;;7.82;1.52;;;;;;;;;;4915895;29;20024;-81
2022/05/11 12:39:57;;;;;;;6.05;1.33;;;;;;;;;;4915803;29;20032;-84
2022/05/11 12:42:27;;;;;;;6.07;1.75;;;;;;;;;;4915748;29;20132;-83
2022/05/11 12:44:53;;;;;;;5.95;1.10;;;;;;;;;;4915496;29;20039;-80
2022/05/11 12:47:19;;;;;;;7.88;1.38;;;;;;;;;;4942446;28;20066;-83
2022/05/11 12:49:47;;;;;;;10.32;1.80;;;;;;;;;;4973547;28;20130;-86
2022/05/11 12:52:16;;;;;;;8.88;1.40;;;;;;;;;;4974995;28;20029;-81
2022/05/11 12:54:54;;;;;;;5.28;1.30;;;;;;;;;;4974900;28;20081;-81
2022/05/11 12:57:21;;;;;;;7.78;1.80;;;;;;;;;;4973475;28;20031;-82
2022/05/11 12:59:56;;;;;;;9.68;1.83;;;;;;;;;;4974395;28;20034;-83
2022/05/11 13:02:26;;;;;;;6.82;1.48;;;;;;;;;;4974737;28;20030;-82
2022/05/11 13:04:57;;;;;;;7.38;1.92;;;;;;;;;;4973517;28;20035;-81
2022/05/11 13:07:43;;;;;;;5.68;1.92;;;;;;;;;;4957138;28;20030;-82
2022/05/11 13:10:13;;;;;;;7.05;1.75;;;;;;;;;;4944188;29;20035;-83
2022/05/11 13:12:39;;;;;;;9.10;1.73;;;;;;;;;;4970905;28;20182;-80
2022/05/11 13:15:06;;;;;;;10.27;1.63;;;;;;;;;;4955498;29;20074;-81
2022/05/11 13:17:35;;;;;;;6.78;1.45;;;;;;;;;;4970387;28;20027;-83
2022/05/11 13:20:28;;;;;;;8.15;1.42;;;;;;;;;;4970294;28;20023;-83
2022/05/11 13:22:55;;;;;;;8.10;1.70;;;;;;;;;;4952610;29;20390;-82
2022/05/11 13:25:57;;;;;;;11.35;2.72;;;;;;;;;;4970697;28;20027;-82
2022/05/11 13:28:31;;;;;;;8.27;1.80;;;;;;;;;;4896368;29;20044;-80
2022/05/11 13:30:59;;;;;;;5.90;1.50;;;;;;;;;;4896109;29;20139;-82
2022/05/11 13:33:45;;;;;;;9.90;1.83;;;;;;;;;;4896255;29;20487;-81
2022/05/11 13:36:11;;;;;;;8.05;2.92;;;;;;;;;;4896094;29;20119;-82
2022/05/11 13:38:38;;;;;;;10.35;1.80;;;;;;;;;;4894813;29;20121;-82
2022/05/11 13:41:07;;;;;;;10.82;1.88;;;;;;;;;;4894929;29;20029;-83
2022/05/11 13:43:35;;;;;;;6.90;2.10;;;;;;;;;;4895233;29;20423;-82
2022/05/11 13:46:03;;;;;;;13.60;1.95;;;;;;;;;;4896286;29;20032;-82
2022/05/11 13:48:36;;;;;;;14.45;2.40;;;;;;;;;;4895627;29;20208;-82
2022/05/11 13:51:18;;;;;;;10.40;2.80;;;;;;;;;;4895855;29;20754;-81
2022/05/11 13:53:45;;;;;;;10.80;2.22;;;;;;;;;;4895932;29;20151;-82
2022/05/11 13:56:17;;;;;;;13.98;1.98;;;;;;;;;;4895934;29;20482;-82
2022/05/11 13:58:43;;;;;;;;;;;;;;;;;;4896719;29;20029;-81
2022/05/11 14:01:11;;;;;;;17.00;2.20;;;;;;;;;;4896656;29;20272;-80
2022/05/11 14:03:39;;;;;;;7.75;2.30;;;;;;;;;;4969991;28;20027;-82
2022/05/11 14:06:08;;;;;;;12.30;2.00;;;;;;;;;;4955264;29;20342;-82
2022/05/11 14:08:34;;;;;;;10.57;2.40;;;;;;;;;;4954841;29;20031;-80
2022/05/11 14:11:00;;;;;;;10.43;2.45;;;;;;;;;;4970724;28;20081;-80
2022/05/11 14:13:26;;;;;;;11.05;2.47;;;;;;;;;;4958667;29;20073;-80
2022/05/11 14:15:53;;;;;;;7.60;2.40;;;;;;;;;;4958540;29;20023;-81
2022/05/11 14:18:20;;;;;;;10.82;2.25;;;;;;;;;;4973229;28;20028;-81
2022/05/11 14:20:47;;;;;;;12.43;3.28;;;;;;;;;;4958739;28;20019;-82
2022/05/11 14:23:14;;;;;;;21.00;2.60;;;;;;;;;;4958793;28;20019;-80
2022/05/11 14:25:40;;;;;;;12.60;2.70;;;;;;;;;;4973447;28;20090;-82
2022/05/11 14:28:06;;;;;;;8.90;2.38;;;;;;;;;;4958381;29;20031;-81
2022/05/11 14:30:33;;;;;;;9.27;2.20;;;;;;;;;;4958523;29;20035;-80
2022/05/11 14:32:59;;;;;;;11.48;2.17;;;;;;;;;;4958375;29;20027;-81
2022/05/11 14:35:26;;;;;;;10.15;2.13;;;;;;;;;;4958294;29;20024;-80
2022/05/11 14:37:53;;;;;;;13.32;3.00;;;;;;;;;;4958139;29;20366;-81
2022/05/11 14:40:20;;;;;;;18.80;2.90;;;;;;;;;;4972935;28;20031;-81
2022/05/11 14:42:47;;;;;;;9.80;1.90;;;;;;;;;;4958304;29;20075;-80
2022/05/11 14:45:13;;;;;;;12.60;2.10;;;;;;;;;;4958135;29;20028;-81
2022/05/11 14:47:41;;;;;;;19.15;2.55;;;;;;;;;;4953972;29;20051;-80
2022/05/11 14:50:08;;;;;;;13.68;2.40;;;;;;;;;;4958216;28;20462;-80
2022/05/11 14:52:35;;;;;;;11.48;2.50;;;;;;;;;;4972810;28;20046;-81
2022/05/11 14:55:03;;;;;;;13.43;2.75;;;;;;;;;;4957708;29;20035;-77
2022/05/11 15:02:59;;;;;;;13.18;2.65;;;;;;;;;;4959142;28;20053;-80
2022/05/11 15:05:25;;;;;;;11.35;2.20;;;;;;;;;;4966085;28;20022;-79
2022/05/11 15:08:03;;;;;;;19.52;2.78;;;;;;;;;;4976715;28;20037;-80
2022/05/11 15:10:29;;;;;;;10.48;2.20;;;;;;;;;;4970250;28;20031;-80
2022/05/11 15:15:40;;;;;;;9.20;2.10;;;;;;;;;;4960199;28;20422;-80
2022/05/11 15:18:10;;;;;;;13.40;2.67;;;;;;;;;;4976969;28;20027;-82
2022/05/11 15:20:36;;;;;;;14.00;2.30;;;;;;;;;;4976840;28;20070;-81
2022/05/11 15:23:02;;;;;;;11.07;2.35;;;;;;;;;;4976812;28;20082;-79
2022/05/11 15:25:29;;;;;;;10.10;1.80;;;;;;;;;;4971990;28;20080;-80
2022/05/11 15:27:55;;;;;;;16.60;2.33;;;;;;;;;;4976293;28;20035;-81
2022/05/11 15:30:22;;;;;;;16.60;2.05;;;;;;;;;;4976496;28;20030;-81
2022/05/11 15:32:48;;;;;;;9.93;2.08;;;;;;;;;;4976426;28;20082;-81
2022/05/11 15:35:15;;;;;;;9.60;1.85;;;;;;;;;;4970268;28;20411;-82
2022/05/11 15:37:42;;;;;;;6.47;1.50;;;;;;;;;;4968361;28;20154;-81
2022/05/11 15:40:09;;;;;;;10.30;2.25;;;;;;;;;;4963482;28;20027;-83
2022/05/11 15:42:35;;;;;;;10.98;2.28;;;;;;;;;;4973372;28;20406;-81
2022/05/11 15:45:03;;;;;;;17.35;2.03;;;;;;;;;;4968545;28;20055;-82